createdAt,value
2017-12-27T00:00:40.662Z,88.5
2017-12-27T00:01:41.321Z,88.1
2017-12-27T00:02:41.978Z,88.4
2017-12-27T00:03:42.638Z,88.3
2017-12-27T00:04:43.296Z,88.5
2017-12-27T00:05:43.954Z,88.0
2017-12-27T00:06:44.613Z,88.5
2017-12-27T00:07:45.272Z,88.3
2017-12-27T00:08:45.930Z,88.3
2017-12-27T00:09:46.588Z,88.3
2017-12-27T00:10:47.247Z,88.3
2017-12-27T00:11:47.906Z,88.5
2017-12-27T00:12:48.563Z,88.3
2017-12-27T00:13:49.222Z,88.3
2017-12-27T00:14:49.880Z,88.3
2017-12-27T00:15:50.540Z,88.4
2017-12-27T00:16:51.198Z,88.3
2017-12-27T00:17:51.855Z,88.8
2017-12-27T00:18:52.515Z,88.5
2017-12-27T00:19:53.174Z,88.8
2017-12-27T00:20:53.832Z,88.6
2017-12-27T00:21:54.491Z,88.9
2017-12-27T00:22:55.149Z,89.0
2017-12-27T00:23:55.811Z,88.9
2017-12-27T00:24:56.466Z,89.0
2017-12-27T00:25:57.124Z,88.7
2017-12-27T00:26:57.788Z,88.6
2017-12-27T00:27:58.442Z,88.9
2017-12-27T00:28:59.100Z,89.0
2017-12-27T00:29:59.757Z,89.0
2017-12-27T00:31:00.418Z,89.4
2017-12-27T00:32:01.076Z,89.0
2017-12-27T00:33:01.734Z,88.6
2017-12-27T00:34:02.392Z,89.5
2017-12-27T00:35:03.051Z,89.6
2017-12-27T00:36:03.709Z,89.2
2017-12-27T00:37:04.367Z,89.3
2017-12-27T00:38:05.026Z,89.4
2017-12-27T00:39:05.684Z,89.5
2017-12-27T00:40:06.342Z,89.5
2017-12-27T00:41:07.000Z,90.1
2017-12-27T00:42:07.736Z,89.5
2017-12-27T00:43:08.353Z,89.9
2017-12-27T00:44:09.013Z,90.0
2017-12-27T00:45:09.707Z,89.7
2017-12-27T00:46:10.364Z,89.9
2017-12-27T00:47:11.021Z,89.6
2017-12-27T00:48:11.676Z,89.4
2017-12-27T00:49:12.332Z,89.3
2017-12-27T00:50:12.989Z,89.5
2017-12-27T00:51:13.645Z,89.5
2017-12-27T00:52:14.303Z,89.2
2017-12-27T00:53:14.960Z,89.4
2017-12-27T00:54:15.620Z,89.3
2017-12-27T00:55:16.277Z,89.5
2017-12-27T00:56:16.934Z,89.7
2017-12-27T00:57:17.593Z,89.0
2017-12-27T00:58:18.253Z,89.4
2017-12-27T00:59:18.912Z,89.5
2017-12-27T01:00:19.565Z,89.0
2017-12-27T01:01:20.224Z,89.5
2017-12-27T01:02:20.884Z,89.2
2017-12-27T01:03:21.575Z,89.8
2017-12-27T01:04:22.232Z,89.3
2017-12-27T01:05:22.889Z,89.3
2017-12-27T01:06:23.548Z,89.6
2017-12-27T01:07:24.204Z,89.4
2017-12-27T01:08:24.863Z,89.5
2017-12-27T01:09:25.522Z,88.8
2017-12-27T01:10:26.180Z,89.5
2017-12-27T01:11:26.839Z,89.2
2017-12-27T01:12:27.497Z,89.1
2017-12-27T01:13:28.154Z,89.2
2017-12-27T01:14:28.812Z,89.3
2017-12-27T01:15:29.471Z,89.4
2017-12-27T01:16:30.129Z,89.4
2017-12-27T01:17:30.787Z,89.5
2017-12-27T01:18:31.446Z,89.2
2017-12-27T01:19:32.104Z,88.6
2017-12-27T01:20:32.765Z,88.9
2017-12-27T01:21:33.422Z,88.6
2017-12-27T01:22:34.081Z,88.8
2017-12-27T01:23:34.776Z,88.6
2017-12-27T01:24:35.435Z,88.5
2017-12-27T01:25:36.142Z,88.5
2017-12-27T01:26:36.800Z,88.5
2017-12-27T01:27:37.459Z,88.6
2017-12-27T01:28:38.116Z,88.3
2017-12-27T01:29:38.775Z,88.6
2017-12-27T01:30:39.433Z,88.3
2017-12-27T01:31:40.091Z,88.2
2017-12-27T01:32:40.750Z,88.0
2017-12-27T01:33:41.408Z,87.6
2017-12-27T01:34:42.067Z,88.2
2017-12-27T01:35:42.725Z,87.6
2017-12-27T01:36:43.384Z,87.7
2017-12-27T01:37:44.042Z,87.8
2017-12-27T01:38:44.701Z,87.6
2017-12-27T01:39:45.361Z,87.5
2017-12-27T01:40:46.018Z,87.4
2017-12-27T01:41:46.675Z,87.7
2017-12-27T01:42:47.335Z,87.6
2017-12-27T01:43:47.993Z,87.3
2017-12-27T01:44:48.654Z,87.1
2017-12-27T01:45:49.311Z,87.2
2017-12-27T01:46:49.970Z,86.8
2017-12-27T01:47:50.627Z,87.1
2017-12-27T01:48:51.287Z,87.4
2017-12-27T01:49:51.947Z,87.1
2017-12-27T01:50:52.603Z,87.5
2017-12-27T01:51:53.263Z,87.3
2017-12-27T01:52:53.922Z,87.2
2017-12-27T01:53:54.579Z,87.2
2017-12-27T01:54:55.238Z,87.4
2017-12-27T01:55:55.898Z,87.3
2017-12-27T01:56:56.557Z,86.9
2017-12-27T01:57:57.216Z,86.8
2017-12-27T01:58:57.875Z,86.8
2017-12-27T01:59:58.534Z,86.7
2017-12-27T02:00:59.192Z,86.6
2017-12-27T02:01:59.850Z,86.4
2017-12-27T02:03:00.509Z,86.5
2017-12-27T02:04:01.168Z,86.5
2017-12-27T02:05:01.826Z,86.8
2017-12-27T02:06:02.485Z,86.2
2017-12-27T02:07:03.144Z,86.5
2017-12-27T02:08:03.803Z,86.5
2017-12-27T02:09:04.462Z,86.6
2017-12-27T02:10:05.125Z,86.4
2017-12-27T02:11:05.830Z,86.3
2017-12-27T02:12:06.489Z,86.1
2017-12-27T02:13:07.146Z,86.3
2017-12-27T02:14:07.803Z,86.5
2017-12-27T02:15:08.461Z,86.3
2017-12-27T02:16:09.119Z,86.5
2017-12-27T02:17:09.778Z,86.5
2017-12-27T02:18:10.440Z,86.7
2017-12-27T02:19:11.095Z,86.9
2017-12-27T02:20:11.753Z,86.9
2017-12-27T02:21:12.448Z,86.4
2017-12-27T02:22:13.108Z,86.3
2017-12-27T02:23:13.769Z,86.2
2017-12-27T02:24:14.427Z,86.3
2017-12-27T02:25:15.086Z,86.4
2017-12-27T02:26:15.745Z,86.0
2017-12-27T02:28:02.555Z,86.3
2017-12-27T02:29:03.214Z,86.2
2017-12-27T02:30:03.873Z,86.3
2017-12-27T02:31:04.531Z,85.9
2017-12-27T02:32:05.190Z,86.1
2017-12-27T02:33:05.848Z,86.0
2017-12-27T02:34:06.506Z,86.7
2017-12-27T02:35:07.164Z,86.2
2017-12-27T02:36:07.822Z,86.6
2017-12-27T02:37:08.481Z,86.1
2017-12-27T02:38:09.139Z,86.4
2017-12-27T02:39:09.798Z,86.3
2017-12-27T02:40:10.458Z,85.6
2017-12-27T02:41:11.115Z,85.7
2017-12-27T02:42:11.774Z,85.4
2017-12-27T02:43:12.433Z,85.6
2017-12-27T02:44:13.090Z,85.5
2017-12-27T02:45:13.748Z,85.9
2017-12-27T02:46:14.405Z,85.9
2017-12-27T02:47:15.064Z,85.8
2017-12-27T02:48:15.721Z,85.8
2017-12-27T02:49:16.380Z,85.7
2017-12-27T02:50:17.036Z,86.0
2017-12-27T02:51:17.693Z,85.5
2017-12-27T02:52:18.354Z,85.6
2017-12-27T02:53:19.056Z,85.6
2017-12-27T02:54:19.708Z,85.7
2017-12-27T02:55:20.366Z,85.1
2017-12-27T02:56:21.027Z,85.4
2017-12-27T02:57:21.686Z,85.1
2017-12-27T02:58:22.346Z,85.2
2017-12-27T02:59:23.006Z,85.4
2017-12-27T03:00:23.665Z,85.6
2017-12-27T03:01:24.325Z,85.4
2017-12-27T03:02:25.021Z,86.0
2017-12-27T03:03:25.680Z,85.8
2017-12-27T03:04:26.339Z,85.7
2017-12-27T03:05:26.999Z,85.8
2017-12-27T03:06:27.659Z,85.7
2017-12-27T03:07:28.318Z,85.9
2017-12-27T03:08:28.980Z,85.9
2017-12-27T03:09:29.638Z,85.6
2017-12-27T03:10:30.297Z,85.6
2017-12-27T03:11:30.956Z,85.1
2017-12-27T03:12:31.615Z,84.7
2017-12-27T03:13:32.275Z,84.8
2017-12-27T03:14:32.933Z,85.1
2017-12-27T03:15:33.597Z,84.8
2017-12-27T03:16:34.251Z,84.7
2017-12-27T03:17:34.910Z,84.8
2017-12-27T03:18:35.570Z,84.8
2017-12-27T03:19:36.228Z,85.0
2017-12-27T03:20:36.887Z,84.8
2017-12-27T03:21:37.547Z,84.7
2017-12-27T03:22:38.205Z,85.0
2017-12-27T03:23:38.863Z,85.1
2017-12-27T03:24:39.522Z,85.0
2017-12-27T03:25:40.182Z,84.4
2017-12-27T03:26:40.841Z,84.5
2017-12-27T03:27:41.500Z,84.2
2017-12-27T03:28:42.160Z,84.0
2017-12-27T03:29:42.818Z,83.9
2017-12-27T03:30:43.513Z,84.1
2017-12-27T03:31:44.208Z,84.0
2017-12-27T03:32:44.865Z,84.1
2017-12-27T03:33:45.522Z,83.8
2017-12-27T03:34:46.180Z,83.0
2017-12-27T03:35:46.837Z,83.0
2017-12-27T03:36:47.496Z,83.4
2017-12-27T03:37:48.154Z,83.2
2017-12-27T03:38:48.813Z,83.0
2017-12-27T03:39:49.471Z,82.5
2017-12-27T03:40:50.128Z,82.4
2017-12-27T03:41:50.787Z,81.9
2017-12-27T03:42:51.446Z,82.4
2017-12-27T03:43:52.104Z,82.4
2017-12-27T03:44:52.764Z,82.0
2017-12-27T03:45:53.422Z,82.6
2017-12-27T03:46:54.080Z,81.6
2017-12-27T03:47:54.740Z,81.8
2017-12-27T03:48:55.400Z,81.6
2017-12-27T03:49:56.058Z,81.4
2017-12-27T03:50:56.717Z,81.7
2017-12-27T03:51:57.374Z,81.9
2017-12-27T03:52:58.034Z,81.8
2017-12-27T03:53:58.692Z,81.6
2017-12-27T03:54:59.351Z,81.6
2017-12-27T03:56:00.008Z,81.8
2017-12-27T03:57:00.668Z,81.7
2017-12-27T03:58:01.326Z,81.6
2017-12-27T03:59:01.983Z,81.8
2017-12-27T04:00:02.641Z,81.6
2017-12-27T04:01:03.299Z,81.8
2017-12-27T04:02:03.956Z,81.9
2017-12-27T04:03:04.618Z,82.2
2017-12-27T04:04:05.272Z,81.9
2017-12-27T04:05:05.928Z,81.9
2017-12-27T04:06:06.587Z,81.8
2017-12-27T04:07:07.243Z,81.6
2017-12-27T04:08:07.901Z,81.4
2017-12-27T04:09:08.560Z,81.3
2017-12-27T04:10:09.217Z,81.6
2017-12-27T04:11:09.875Z,81.1
2017-12-27T04:12:10.535Z,81.4
2017-12-27T04:13:11.194Z,81.2
2017-12-27T04:14:11.853Z,81.3
2017-12-27T04:15:12.549Z,81.5
2017-12-27T04:16:13.206Z,80.9
2017-12-27T04:17:13.866Z,81.0
2017-12-27T04:18:14.524Z,81.0
2017-12-27T04:19:15.182Z,81.0
2017-12-27T04:20:15.842Z,80.7
2017-12-27T04:21:16.508Z,81.0
2017-12-27T04:22:17.160Z,80.6
2017-12-27T04:23:17.819Z,80.1
2017-12-27T04:24:18.478Z,79.9
2017-12-27T04:25:19.140Z,80.2
2017-12-27T04:26:19.797Z,80.1
2017-12-27T04:27:20.457Z,80.0
2017-12-27T04:28:21.116Z,79.9
2017-12-27T04:29:21.776Z,79.6
2017-12-27T04:30:22.436Z,80.1
2017-12-27T04:31:23.096Z,80.0
2017-12-27T04:32:23.756Z,79.8
2017-12-27T04:33:24.452Z,79.9
2017-12-27T04:34:25.113Z,79.5
2017-12-27T04:35:25.773Z,79.7
2017-12-27T04:36:26.432Z,79.7
2017-12-27T04:37:27.092Z,79.5
2017-12-27T04:38:27.751Z,79.6
2017-12-27T04:39:28.410Z,79.0
2017-12-27T04:40:29.070Z,79.2
2017-12-27T04:41:29.728Z,79.1
2017-12-27T04:42:30.388Z,79.0
2017-12-27T04:43:31.046Z,78.7
2017-12-27T04:44:31.706Z,79.0
2017-12-27T04:45:32.364Z,78.9
2017-12-27T04:46:33.023Z,78.7
2017-12-27T04:47:33.683Z,78.8
2017-12-27T04:48:34.342Z,78.9
2017-12-27T04:49:35.000Z,78.8
2017-12-27T04:50:35.659Z,79.2
2017-12-27T04:51:36.319Z,78.9
2017-12-27T04:52:36.977Z,79.0
2017-12-27T04:53:37.639Z,79.0
2017-12-27T04:54:38.295Z,79.1
2017-12-27T04:55:38.954Z,79.1
2017-12-27T04:56:39.616Z,79.1
2017-12-27T04:57:40.272Z,78.8
2017-12-27T04:58:40.930Z,79.7
2017-12-27T04:59:41.589Z,79.6
2017-12-27T05:00:42.247Z,79.5
2017-12-27T05:01:42.908Z,79.5
2017-12-27T05:02:43.566Z,79.1
2017-12-27T05:03:44.225Z,79.6
2017-12-27T05:04:44.884Z,79.6
2017-12-27T05:05:45.544Z,79.9
2017-12-27T05:06:46.202Z,79.5
2017-12-27T05:07:46.861Z,79.8
2017-12-27T05:08:47.520Z,79.6
2017-12-27T05:09:48.179Z,79.9
2017-12-27T05:10:48.839Z,80.3
2017-12-27T05:11:49.496Z,80.2
2017-12-27T05:12:50.157Z,80.1
2017-12-27T05:13:50.817Z,80.2
2017-12-27T05:14:51.512Z,80.0
2017-12-27T05:15:52.171Z,80.9
2017-12-27T05:16:52.831Z,80.4
2017-12-27T05:17:53.491Z,80.6
2017-12-27T05:18:54.149Z,80.8
2017-12-27T05:19:54.808Z,80.7
2017-12-27T05:20:55.469Z,80.6
2017-12-27T05:21:56.130Z,80.5
2017-12-27T05:22:56.789Z,80.8
2017-12-27T05:23:57.449Z,81.1
2017-12-27T05:24:58.110Z,81.0
2017-12-27T05:25:58.806Z,80.7
2017-12-27T05:26:59.463Z,81.5
2017-12-27T05:28:00.123Z,81.5
2017-12-27T05:29:00.784Z,81.3
2017-12-27T05:30:01.443Z,81.3
2017-12-27T05:31:02.103Z,81.3
2017-12-27T05:32:02.762Z,81.4
2017-12-27T05:33:03.422Z,81.2
2017-12-27T05:34:04.080Z,81.3
2017-12-27T05:35:04.740Z,81.3
2017-12-27T05:36:05.399Z,81.5
2017-12-27T05:37:06.058Z,81.4
2017-12-27T05:38:06.716Z,81.3
2017-12-27T05:39:07.376Z,81.5
2017-12-27T05:40:08.037Z,81.6
2017-12-27T05:41:08.695Z,81.3
2017-12-27T05:42:09.352Z,81.3
2017-12-27T05:43:10.013Z,81.3
2017-12-27T05:44:10.670Z,81.2
2017-12-27T05:45:11.329Z,81.4
2017-12-27T05:46:11.990Z,81.3
2017-12-27T05:47:12.648Z,81.1
2017-12-27T05:48:13.332Z,81.7
2017-12-27T05:49:13.966Z,81.9
2017-12-27T05:50:14.626Z,81.8
2017-12-27T05:51:15.284Z,81.8
2017-12-27T05:52:15.944Z,81.8
2017-12-27T05:53:16.601Z,81.8
2017-12-27T05:54:17.261Z,81.9
2017-12-27T05:55:17.920Z,81.6
2017-12-27T05:56:18.579Z,81.5
2017-12-27T05:57:19.237Z,81.8
2017-12-27T05:58:19.896Z,81.6
2017-12-27T05:59:20.556Z,81.7
2017-12-27T06:00:21.215Z,81.9
2017-12-27T06:01:21.874Z,81.8
2017-12-27T06:02:22.532Z,81.7
2017-12-27T06:03:23.190Z,81.8
2017-12-27T06:04:23.851Z,81.8
2017-12-27T06:05:24.509Z,81.7
2017-12-27T06:06:25.169Z,81.3
2017-12-27T06:07:25.829Z,81.4
2017-12-27T06:08:26.524Z,81.8
2017-12-27T06:09:27.187Z,81.4
2017-12-27T06:10:27.842Z,81.3
2017-12-27T06:11:28.501Z,81.4
2017-12-27T06:12:29.162Z,81.5
2017-12-27T06:13:29.828Z,81.3
2017-12-27T06:14:30.518Z,81.2
2017-12-27T06:15:31.178Z,81.2
2017-12-27T06:16:31.838Z,81.4
2017-12-27T06:17:32.532Z,81.5
2017-12-27T06:18:33.190Z,80.2
2017-12-27T06:19:33.848Z,80.2
2017-12-27T06:20:34.507Z,80.2
2017-12-27T06:21:35.165Z,80.1
2017-12-27T06:22:35.822Z,79.9
2017-12-27T06:23:36.479Z,79.5
2017-12-27T06:24:37.136Z,79.3
2017-12-27T06:25:37.794Z,79.5
2017-12-27T06:26:38.453Z,79.8
2017-12-27T06:27:39.111Z,79.8
2017-12-27T06:28:39.806Z,79.8
2017-12-27T06:29:40.464Z,79.5
2017-12-27T06:30:41.122Z,79.3
2017-12-27T06:31:41.779Z,79.7
2017-12-27T06:32:42.436Z,79.3
2017-12-27T06:33:43.093Z,78.9
2017-12-27T06:34:43.756Z,79.3
2017-12-27T06:35:44.413Z,79.5
2017-12-27T06:36:45.070Z,79.5
2017-12-27T06:37:45.732Z,79.2
2017-12-27T06:38:46.388Z,78.4
2017-12-27T06:39:47.046Z,78.0
2017-12-27T06:40:47.705Z,77.8
2017-12-27T06:41:48.401Z,77.6
2017-12-27T06:42:49.096Z,77.5
2017-12-27T06:43:49.754Z,77.1
2017-12-27T06:44:50.411Z,76.9
2017-12-27T06:45:51.069Z,76.9
2017-12-27T06:46:51.726Z,77.3
2017-12-27T06:47:52.420Z,77.0
2017-12-27T06:48:53.079Z,76.0
2017-12-27T06:49:53.738Z,76.8
2017-12-27T06:50:54.395Z,76.1
2017-12-27T06:51:55.054Z,76.3
2017-12-27T06:52:55.748Z,76.3
2017-12-27T06:53:56.407Z,75.8
2017-12-27T06:54:57.067Z,76.0
2017-12-27T06:55:57.726Z,76.0
2017-12-27T06:56:58.383Z,76.1
2017-12-27T06:57:59.042Z,75.2
2017-12-27T06:58:59.702Z,74.8
2017-12-27T07:00:00.362Z,74.1
2017-12-27T07:01:01.021Z,74.3
2017-12-27T07:02:01.679Z,73.9
2017-12-27T07:03:02.338Z,74.1
2017-12-27T07:04:03.034Z,74.1
2017-12-27T07:05:03.695Z,74.2
2017-12-27T07:06:04.391Z,73.8
2017-12-27T07:07:05.051Z,74.2
2017-12-27T07:08:05.711Z,73.9
2017-12-27T07:09:06.372Z,73.5
2017-12-27T07:10:07.036Z,73.6
2017-12-27T07:11:07.697Z,73.3
2017-12-27T07:12:08.358Z,73.0
2017-12-27T07:13:09.018Z,73.5
2017-12-27T07:14:09.677Z,73.6
2017-12-27T07:15:10.336Z,73.7
2017-12-27T07:16:11.034Z,73.2
2017-12-27T07:17:11.694Z,73.4
2017-12-27T07:18:12.356Z,73.2
2017-12-27T07:19:13.016Z,73.3
2017-12-27T07:20:13.676Z,72.8
2017-12-27T07:21:14.336Z,73.1
2017-12-27T07:22:14.995Z,73.3
2017-12-27T07:23:15.653Z,73.2
2017-12-27T07:24:16.313Z,72.7
2017-12-27T07:25:16.974Z,73.0
2017-12-27T07:26:17.633Z,72.4
2017-12-27T07:27:18.292Z,73.1
2017-12-27T07:28:18.952Z,72.8
2017-12-27T07:29:19.612Z,73.2
2017-12-27T07:30:20.272Z,73.0
2017-12-27T07:31:20.932Z,72.4
2017-12-27T07:32:21.591Z,72.3
2017-12-27T07:33:22.250Z,72.3
2017-12-27T07:34:22.910Z,72.3
2017-12-27T07:35:23.571Z,72.3
2017-12-27T07:36:24.230Z,72.4
2017-12-27T07:37:24.890Z,72.7
2017-12-27T07:38:25.552Z,72.4
2017-12-27T07:39:26.248Z,72.6
2017-12-27T07:40:26.911Z,72.8
2017-12-27T07:41:27.571Z,72.2
2017-12-27T07:42:28.231Z,72.1
2017-12-27T07:43:28.890Z,72.1
2017-12-27T07:44:29.589Z,72.6
2017-12-27T07:45:30.250Z,72.4
2017-12-27T07:46:30.910Z,72.4
2017-12-27T07:47:31.570Z,72.3
2017-12-27T07:48:32.230Z,72.4
2017-12-27T07:49:32.892Z,72.3
2017-12-27T07:50:33.554Z,72.4
2017-12-27T07:51:34.217Z,72.4
2017-12-27T07:52:34.879Z,72.3
2017-12-27T07:53:35.542Z,72.6
2017-12-27T07:54:36.204Z,72.4
2017-12-27T07:55:36.865Z,72.4
2017-12-27T07:56:37.527Z,72.0
2017-12-27T07:57:38.188Z,72.1
2017-12-27T07:58:38.851Z,72.0
2017-12-27T07:59:39.513Z,72.3
2017-12-27T08:00:40.208Z,72.0
2017-12-27T08:01:40.871Z,72.1
2017-12-27T08:02:41.531Z,72.2
2017-12-27T08:03:42.193Z,71.9
2017-12-27T08:04:42.854Z,71.9
2017-12-27T08:05:43.517Z,71.4
2017-12-27T08:06:44.180Z,71.7
2017-12-27T08:07:44.880Z,71.6
2017-12-27T08:08:45.542Z,71.8
2017-12-27T08:09:46.206Z,71.9
2017-12-27T08:10:46.868Z,71.7
2017-12-27T08:11:47.530Z,71.7
2017-12-27T08:12:48.192Z,71.9
2017-12-27T08:13:48.855Z,71.0
2017-12-27T08:14:49.518Z,71.3
2017-12-27T08:15:50.180Z,71.2
2017-12-27T08:16:50.843Z,70.9
2017-12-27T08:17:51.505Z,71.4
2017-12-27T08:18:52.182Z,71.4
2017-12-27T08:19:52.827Z,71.4
2017-12-27T08:20:53.489Z,71.5
2017-12-27T08:21:54.151Z,71.2
2017-12-27T08:22:54.813Z,71.0
2017-12-27T08:23:55.474Z,71.1
2017-12-27T08:24:56.137Z,71.4
2017-12-27T08:25:56.801Z,70.7
2017-12-27T08:26:57.466Z,70.6
2017-12-27T08:27:58.130Z,70.8
2017-12-27T08:28:58.793Z,70.9
2017-12-27T08:29:59.455Z,70.5
2017-12-27T08:31:00.119Z,70.7
2017-12-27T08:32:00.783Z,70.3
2017-12-27T08:33:01.449Z,70.7
2017-12-27T08:34:02.110Z,70.6
2017-12-27T08:35:02.773Z,70.4
2017-12-27T08:36:03.436Z,70.2
2017-12-27T08:37:04.098Z,70.8
2017-12-27T08:38:04.763Z,70.5
2017-12-27T08:39:05.429Z,70.4
2017-12-27T08:40:06.130Z,70.5
2017-12-27T08:41:06.755Z,70.2
2017-12-27T08:42:07.419Z,69.7
2017-12-27T08:43:08.082Z,69.5
2017-12-27T08:44:08.747Z,69.7
2017-12-27T08:45:09.410Z,69.5
2017-12-27T08:46:10.073Z,69.5
2017-12-27T08:47:10.736Z,69.6
2017-12-27T08:48:11.400Z,69.0
2017-12-27T08:49:12.064Z,69.1
2017-12-27T08:50:12.728Z,69.0
2017-12-27T08:51:13.394Z,68.9
2017-12-27T08:52:14.058Z,69.1
2017-12-27T08:53:14.721Z,69.0
2017-12-27T08:54:15.386Z,68.8
2017-12-27T08:55:16.050Z,69.0
2017-12-27T08:56:16.715Z,69.2
2017-12-27T08:57:17.378Z,69.0
2017-12-27T08:58:18.041Z,69.2
2017-12-27T08:59:18.705Z,69.0
2017-12-27T09:00:19.369Z,68.4
2017-12-27T09:01:20.035Z,67.9
2017-12-27T09:02:20.706Z,67.9
2017-12-27T09:03:21.364Z,67.5
2017-12-27T09:04:22.027Z,67.7
2017-12-27T09:05:22.693Z,67.1
2017-12-27T09:06:23.357Z,67.2
2017-12-27T09:07:24.058Z,66.7
2017-12-27T09:08:24.722Z,66.9
2017-12-27T09:09:25.386Z,66.8
2017-12-27T09:10:26.050Z,66.6
2017-12-27T09:11:26.762Z,66.4
2017-12-27T09:12:27.427Z,66.2
2017-12-27T09:13:28.092Z,65.9
2017-12-27T09:14:28.756Z,66.5
2017-12-27T09:15:29.419Z,66.3
2017-12-27T09:16:30.083Z,66.7
2017-12-27T09:17:30.746Z,66.6
2017-12-27T09:18:31.412Z,66.3
2017-12-27T09:19:32.080Z,66.0
2017-12-27T09:20:32.740Z,66.1
2017-12-27T09:21:33.403Z,65.8
2017-12-27T09:22:34.067Z,65.8
2017-12-27T09:23:34.729Z,64.9
2017-12-27T09:24:35.395Z,64.6
2017-12-27T09:25:36.060Z,64.8
2017-12-27T09:26:36.725Z,64.4
2017-12-27T09:27:37.389Z,64.1
2017-12-27T09:28:38.053Z,64.1
2017-12-27T09:29:38.718Z,63.9
2017-12-27T09:30:39.383Z,63.9
2017-12-27T09:31:40.133Z,64.2
2017-12-27T09:32:40.796Z,64.3
2017-12-27T09:33:41.460Z,64.1
2017-12-27T09:34:42.160Z,63.3
2017-12-27T09:35:42.824Z,63.4
2017-12-27T09:36:43.487Z,63.7
2017-12-27T09:37:44.151Z,63.6
2017-12-27T09:38:44.815Z,64.4
2017-12-27T09:39:45.513Z,64.1
2017-12-27T09:40:46.177Z,64.0
2017-12-27T09:41:46.840Z,63.5
2017-12-27T09:42:47.506Z,63.5
2017-12-27T09:43:48.172Z,63.7
2017-12-27T09:44:48.843Z,62.9
2017-12-27T09:45:49.500Z,63.4
2017-12-27T09:46:50.164Z,63.1
2017-12-27T09:47:50.830Z,62.8
2017-12-27T09:48:51.496Z,62.3
2017-12-27T09:49:52.160Z,62.2
2017-12-27T09:50:52.824Z,62.1
2017-12-27T09:51:53.539Z,61.4
2017-12-27T09:52:54.205Z,61.2
2017-12-27T09:53:54.871Z,60.9
2017-12-27T09:54:55.539Z,61.3
2017-12-27T09:55:56.238Z,61.0
2017-12-27T09:56:56.902Z,60.5
2017-12-27T09:57:57.569Z,60.3
2017-12-27T09:58:58.272Z,60.0
2017-12-27T09:59:58.941Z,60.4
2017-12-27T10:00:59.602Z,60.1
2017-12-27T10:02:00.267Z,60.1
2017-12-27T10:03:00.931Z,59.9
2017-12-27T10:04:01.696Z,59.6
2017-12-27T10:05:02.399Z,59.8
2017-12-27T10:06:03.064Z,60.1
2017-12-27T10:07:03.731Z,59.6
2017-12-27T10:08:04.397Z,59.6
2017-12-27T10:09:05.063Z,60.0
2017-12-27T10:10:05.728Z,60.4
2017-12-27T10:11:06.393Z,59.9
2017-12-27T10:12:07.063Z,59.5
2017-12-27T10:13:07.727Z,60.2
2017-12-27T10:14:08.395Z,59.7
2017-12-27T10:15:09.062Z,59.5
2017-12-27T10:16:09.727Z,59.1
2017-12-27T10:17:10.392Z,59.3
2017-12-27T10:18:11.063Z,59.6
2017-12-27T10:19:11.723Z,59.6
2017-12-27T10:20:12.387Z,59.7
2017-12-27T10:21:13.055Z,60.3
2017-12-27T10:22:13.785Z,60.1
2017-12-27T10:23:14.432Z,60.0
2017-12-27T10:24:15.097Z,60.4
2017-12-27T10:25:15.762Z,61.0
2017-12-27T10:26:16.429Z,60.8
2017-12-27T10:27:17.094Z,60.8
2017-12-27T10:28:17.760Z,60.2
2017-12-27T10:29:18.426Z,60.0
2017-12-27T10:30:19.092Z,60.9
2017-12-27T10:31:19.758Z,60.0
2017-12-27T10:32:20.426Z,60.6
2017-12-27T10:33:21.093Z,60.6
2017-12-27T10:34:21.761Z,60.8
2017-12-27T10:35:22.427Z,60.8
2017-12-27T10:36:23.095Z,61.0
2017-12-27T10:37:23.760Z,60.4
2017-12-27T10:38:24.424Z,60.7
2017-12-27T10:39:25.091Z,60.7
2017-12-27T10:40:25.756Z,60.6
2017-12-27T10:41:26.427Z,61.1
2017-12-27T10:42:27.093Z,60.7
2017-12-27T10:43:27.759Z,60.1
2017-12-27T10:44:28.427Z,59.6
2017-12-27T10:45:29.094Z,59.9
2017-12-27T10:46:29.759Z,59.5
2017-12-27T10:47:30.425Z,59.3
2017-12-27T10:48:31.092Z,58.9
2017-12-27T10:49:31.760Z,59.1
2017-12-27T10:50:32.427Z,59.0
2017-12-27T10:51:33.094Z,58.7
2017-12-27T10:52:33.762Z,58.8
2017-12-27T10:53:34.428Z,58.9
2017-12-27T10:54:35.094Z,58.9
2017-12-27T10:55:35.760Z,58.3
2017-12-27T10:56:36.426Z,58.0
2017-12-27T10:57:37.096Z,57.5
2017-12-27T10:58:37.763Z,57.3
2017-12-27T10:59:38.431Z,56.8
2017-12-27T11:00:39.097Z,57.1
2017-12-27T11:01:39.764Z,57.2
2017-12-27T11:02:40.432Z,57.4
2017-12-27T11:03:41.098Z,57.6
2017-12-27T11:04:41.764Z,57.6
2017-12-27T11:05:42.431Z,57.5
2017-12-27T11:06:43.100Z,57.4
2017-12-27T11:07:43.768Z,57.4
2017-12-27T11:08:44.434Z,57.4
2017-12-27T11:09:45.102Z,57.1
2017-12-27T11:10:45.769Z,57.3
2017-12-27T11:11:46.435Z,57.3
2017-12-27T11:12:47.101Z,57.3
2017-12-27T11:13:47.769Z,57.4
2017-12-27T11:14:48.439Z,57.1
2017-12-27T11:15:49.107Z,57.1
2017-12-27T11:16:49.775Z,56.7
2017-12-27T11:17:50.445Z,56.4
2017-12-27T11:18:51.114Z,56.4
2017-12-27T11:19:51.779Z,56.2
2017-12-27T11:20:52.448Z,55.8
2017-12-27T11:21:53.115Z,56.2
2017-12-27T11:22:53.784Z,55.4
2017-12-27T11:23:54.450Z,55.3
2017-12-27T11:24:55.119Z,55.6
2017-12-27T11:25:55.787Z,56.2
2017-12-27T11:26:56.454Z,55.8
2017-12-27T11:27:57.122Z,56.8
2017-12-27T11:28:57.794Z,56.6
2017-12-27T11:29:58.460Z,56.2
2017-12-27T11:30:59.129Z,56.0
2017-12-27T11:31:59.807Z,56.7
2017-12-27T11:33:00.471Z,56.7
2017-12-27T11:34:01.140Z,56.1
2017-12-27T11:35:01.805Z,56.6
2017-12-27T11:36:02.474Z,56.4
2017-12-27T11:37:03.143Z,56.4
2017-12-27T11:38:03.811Z,56.5
2017-12-27T11:39:04.477Z,57.2
2017-12-27T11:40:05.145Z,56.5
2017-12-27T11:41:05.813Z,56.6
2017-12-27T11:42:06.479Z,57.7
2017-12-27T11:43:07.195Z,57.4
2017-12-27T11:44:07.865Z,57.3
2017-12-27T11:45:08.531Z,57.4
2017-12-27T11:46:09.198Z,57.8
2017-12-27T11:47:09.899Z,57.6
2017-12-27T11:48:10.563Z,57.3
2017-12-27T11:49:11.231Z,57.8
2017-12-27T11:50:11.897Z,58.4
2017-12-27T11:51:12.563Z,58.0
2017-12-27T11:52:13.228Z,58.2
2017-12-27T11:53:13.895Z,58.2
2017-12-27T11:54:14.561Z,58.8
2017-12-27T11:55:15.229Z,58.9
2017-12-27T11:56:15.896Z,59.3
2017-12-27T11:57:16.562Z,58.4
2017-12-27T11:58:17.226Z,58.6
2017-12-27T11:59:17.891Z,58.7
2017-12-27T12:00:18.557Z,58.6
2017-12-27T12:01:19.224Z,58.9
2017-12-27T12:02:19.891Z,58.6
2017-12-27T12:03:20.554Z,59.1
2017-12-27T12:04:21.219Z,59.3
2017-12-27T12:05:21.884Z,59.6
2017-12-27T12:06:22.549Z,59.1
2017-12-27T12:07:23.215Z,58.6
2017-12-27T12:08:23.884Z,58.7
2017-12-27T12:09:24.549Z,59.4
2017-12-27T12:10:25.214Z,59.1
2017-12-27T12:11:25.880Z,58.9
2017-12-27T12:12:26.546Z,59.0
2017-12-27T12:13:27.212Z,59.1
2017-12-27T12:14:27.877Z,59.3
2017-12-27T12:15:28.542Z,59.1
2017-12-27T12:16:29.210Z,59.0
2017-12-27T12:17:29.872Z,59.6
2017-12-27T12:18:30.536Z,59.7
2017-12-27T12:19:31.202Z,59.3
2017-12-27T12:20:31.873Z,59.4
2017-12-27T12:21:32.538Z,59.4
2017-12-27T12:22:33.203Z,59.7
2017-12-27T12:23:33.867Z,59.8
2017-12-27T12:24:34.533Z,59.6
2017-12-27T12:25:35.200Z,59.6
2017-12-27T12:26:35.866Z,59.3
2017-12-27T12:27:36.532Z,59.7
2017-12-27T12:28:37.249Z,59.9
2017-12-27T12:29:37.918Z,59.2
2017-12-27T12:30:38.586Z,59.5
2017-12-27T12:31:39.254Z,59.5
2017-12-27T12:32:39.924Z,59.1
2017-12-27T12:33:40.590Z,59.3
2017-12-27T12:34:41.257Z,59.7
2017-12-27T12:35:41.926Z,59.3
2017-12-27T12:36:42.595Z,59.1
2017-12-27T12:37:43.264Z,59.2
2017-12-27T12:38:43.935Z,59.1
2017-12-27T12:39:44.635Z,58.6
2017-12-27T12:40:45.303Z,58.9
2017-12-27T12:41:45.970Z,59.1
2017-12-27T12:42:46.637Z,58.7
2017-12-27T12:43:47.305Z,59.0
2017-12-27T12:44:47.977Z,60.0
2017-12-27T12:45:48.648Z,60.7
2017-12-27T12:46:49.315Z,61.3
2017-12-27T12:47:49.988Z,61.1
2017-12-27T12:48:50.654Z,62.0
2017-12-27T12:49:51.321Z,62.4
2017-12-27T12:50:51.992Z,62.1
2017-12-27T12:51:52.660Z,62.4
2017-12-27T12:52:53.328Z,62.8
2017-12-27T12:53:53.994Z,63.9
2017-12-27T12:54:54.664Z,63.4
2017-12-27T12:55:55.334Z,64.1
2017-12-27T12:56:56.006Z,64.3
2017-12-27T12:57:56.676Z,64.4
2017-12-27T12:58:57.349Z,64.3
2017-12-27T12:59:58.016Z,63.8
2017-12-27T13:00:58.684Z,62.4
2017-12-27T13:01:59.350Z,62.7
2017-12-27T13:03:00.030Z,61.4
2017-12-27T13:04:00.684Z,60.7
2017-12-27T13:05:01.352Z,60.9
2017-12-27T13:06:02.021Z,60.5
2017-12-27T13:07:02.691Z,60.7
2017-12-27T13:08:03.357Z,61.0
2017-12-27T13:09:04.028Z,60.8
2017-12-27T13:10:04.695Z,61.2
2017-12-27T13:11:05.361Z,60.5
2017-12-27T13:12:06.026Z,60.2
2017-12-27T13:13:06.690Z,60.2
2017-12-27T13:14:07.356Z,60.6
2017-12-27T13:15:08.024Z,60.7
2017-12-27T13:16:08.692Z,61.3
2017-12-27T13:17:09.357Z,61.3
2017-12-27T13:18:10.025Z,60.8
2017-12-27T13:19:10.742Z,60.4
2017-12-27T13:20:11.406Z,60.5
2017-12-27T13:21:12.072Z,60.8
2017-12-27T13:22:12.737Z,60.9
2017-12-27T13:23:13.404Z,60.8
2017-12-27T13:24:14.071Z,60.8
2017-12-27T13:25:14.773Z,60.9
2017-12-27T13:26:15.440Z,61.1
2017-12-27T13:27:16.115Z,61.6
2017-12-27T13:28:16.775Z,61.9